sensor_id;sensor_type;location;lat;lon;timestamp;P1;durP1;ratioP1;P2;durP2;ratioP2
73650;SDS011;61944;52.538;6.108;2023-07-31T00:01:59;1.85;;;1.20;;
73650;SDS011;61944;52.538;6.108;2023-07-31T00:04:25;3.97;;;1.52;;
73650;SDS011;61944;52.538;6.108;2023-07-31T00:06:50;2.92;;;1.48;;
73650;SDS011;61944;52.538;6.108;2023-07-31T00:09:15;4.50;;;1.15;;
73650;SDS011;61944;52.538;6.108;2023-07-31T00:11:41;1.88;;;1.25;;
73650;SDS011;61944;52.538;6.108;2023-07-31T00:14:06;1.30;;;0.82;;
73650;SDS011;61944;52.538;6.108;2023-07-31T00:16:32;4.88;;;1.13;;
73650;SDS011;61944;52.538;6.108;2023-07-31T00:18:57;3.70;;;1.05;;
73650;SDS011;61944;52.538;6.108;2023-07-31T00:21:22;2.65;;;1.02;;
73650;SDS011;61944;52.538;6.108;2023-07-31T00:23:48;3.92;;;1.75;;
73650;SDS011;61944;52.538;6.108;2023-07-31T00:26:13;5.13;;;0.95;;
73650;SDS011;61944;52.538;6.108;2023-07-31T00:28:38;1.40;;;0.70;;
73650;SDS011;61944;52.538;6.108;2023-07-31T00:31:04;2.97;;;0.80;;
73650;SDS011;61944;52.538;6.108;2023-07-31T00:33:30;1.55;;;0.98;;
73650;SDS011;61944;52.538;6.108;2023-07-31T00:35:56;1.67;;;0.68;;
73650;SDS011;61944;52.538;6.108;2023-07-31T00:38:21;1.42;;;0.88;;
73650;SDS011;61944;52.538;6.108;2023-07-31T00:40:47;0.88;;;0.52;;
73650;SDS011;61944;52.538;6.108;2023-07-31T00:43:12;1.67;;;0.80;;
73650;SDS011;61944;52.538;6.108;2023-07-31T00:45:37;1.88;;;0.80;;
73650;SDS011;61944;52.538;6.108;2023-07-31T00:48:04;0.63;;;0.50;;
73650;SDS011;61944;52.538;6.108;2023-07-31T00:50:31;0.82;;;0.50;;
73650;SDS011;61944;52.538;6.108;2023-07-31T00:52:56;1.05;;;0.65;;
73650;SDS011;61944;52.538;6.108;2023-07-31T00:55:22;1.67;;;1.05;;
73650;SDS011;61944;52.538;6.108;2023-07-31T00:57:48;1.38;;;0.95;;
73650;SDS011;61944;52.538;6.108;2023-07-31T01:00:14;0.80;;;0.55;;
73650;SDS011;61944;52.538;6.108;2023-07-31T01:02:39;1.23;;;0.50;;
73650;SDS011;61944;52.538;6.108;2023-07-31T01:05:05;0.90;;;0.40;;
73650;SDS011;61944;52.538;6.108;2023-07-31T01:10:04;2.23;;;0.60;;
73650;SDS011;61944;52.538;6.108;2023-07-31T01:12:44;1.15;;;0.60;;
73650;SDS011;61944;52.538;6.108;2023-07-31T01:15:11;1.95;;;0.75;;
73650;SDS011;61944;52.538;6.108;2023-07-31T01:17:39;0.65;;;0.60;;
73650;SDS011;61944;52.538;6.108;2023-07-31T01:20:10;1.23;;;0.73;;
73650;SDS011;61944;52.538;6.108;2023-07-31T01:25:54;0.73;;;0.50;;
73650;SDS011;61944;52.538;6.108;2023-07-31T01:28:32;1.08;;;0.68;;
73650;SDS011;61944;52.538;6.108;2023-07-31T01:31:10;1.45;;;0.95;;
73650;SDS011;61944;52.538;6.108;2023-07-31T01:33:39;2.08;;;0.93;;
73650;SDS011;61944;52.538;6.108;2023-07-31T01:36:05;1.98;;;1.23;;
73650;SDS011;61944;52.538;6.108;2023-07-31T01:38:31;1.85;;;0.88;;
73650;SDS011;61944;52.538;6.108;2023-07-31T01:40:57;2.03;;;0.93;;
73650;SDS011;61944;52.538;6.108;2023-07-31T01:43:22;1.95;;;0.95;;
73650;SDS011;61944;52.538;6.108;2023-07-31T01:45:49;1.25;;;0.80;;
73650;SDS011;61944;52.538;6.108;2023-07-31T01:48:14;1.58;;;0.98;;
73650;SDS011;61944;52.538;6.108;2023-07-31T01:50:40;3.88;;;1.00;;
73650;SDS011;61944;52.538;6.108;2023-07-31T01:53:05;1.92;;;1.10;;
73650;SDS011;61944;52.538;6.108;2023-07-31T01:55:30;2.97;;;1.40;;
73650;SDS011;61944;52.538;6.108;2023-07-31T01:57:57;3.15;;;1.45;;
73650;SDS011;61944;52.538;6.108;2023-07-31T02:00:22;1.40;;;0.80;;
73650;SDS011;61944;52.538;6.108;2023-07-31T02:02:48;3.10;;;1.27;;
73650;SDS011;61944;52.538;6.108;2023-07-31T02:05:13;2.83;;;1.23;;
73650;SDS011;61944;52.538;6.108;2023-07-31T02:07:38;4.20;;;1.23;;
73650;SDS011;61944;52.538;6.108;2023-07-31T02:10:04;1.45;;;0.90;;
73650;SDS011;61944;52.538;6.108;2023-07-31T02:12:30;2.28;;;1.15;;
73650;SDS011;61944;52.538;6.108;2023-07-31T02:14:57;4.00;;;1.10;;
73650;SDS011;61944;52.538;6.108;2023-07-31T02:17:22;1.20;;;0.95;;
73650;SDS011;61944;52.538;6.108;2023-07-31T02:19:48;2.20;;;1.08;;
73650;SDS011;61944;52.538;6.108;2023-07-31T02:22:13;1.85;;;0.90;;
73650;SDS011;61944;52.538;6.108;2023-07-31T02:24:39;2.03;;;0.80;;
73650;SDS011;61944;52.538;6.108;2023-07-31T02:27:04;1.75;;;1.02;;
73650;SDS011;61944;52.538;6.108;2023-07-31T02:29:30;1.23;;;0.88;;
73650;SDS011;61944;52.538;6.108;2023-07-31T02:31:55;3.10;;;0.98;;
73650;SDS011;61944;52.538;6.108;2023-07-31T02:34:21;3.97;;;1.63;;
73650;SDS011;61944;52.538;6.108;2023-07-31T02:36:46;2.72;;;1.35;;
73650;SDS011;61944;52.538;6.108;2023-07-31T02:39:12;4.82;;;1.40;;
73650;SDS011;61944;52.538;6.108;2023-07-31T02:41:37;3.33;;;1.40;;
73650;SDS011;61944;52.538;6.108;2023-07-31T02:44:02;2.05;;;1.17;;
73650;SDS011;61944;52.538;6.108;2023-07-31T02:46:28;2.28;;;1.30;;
73650;SDS011;61944;52.538;6.108;2023-07-31T02:48:54;3.47;;;1.50;;
73650;SDS011;61944;52.538;6.108;2023-07-31T02:51:19;3.85;;;1.63;;
73650;SDS011;61944;52.538;6.108;2023-07-31T02:53:46;1.88;;;1.40;;
73650;SDS011;61944;52.538;6.108;2023-07-31T02:56:13;3.13;;;1.65;;
73650;SDS011;61944;52.538;6.108;2023-07-31T02:58:38;3.22;;;1.42;;
73650;SDS011;61944;52.538;6.108;2023-07-31T03:01:04;6.85;;;2.15;;
73650;SDS011;61944;52.538;6.108;2023-07-31T03:03:30;3.63;;;1.35;;
73650;SDS011;61944;52.538;6.108;2023-07-31T03:05:55;4.15;;;1.80;;
73650;SDS011;61944;52.538;6.108;2023-07-31T03:08:21;4.57;;;1.85;;
73650;SDS011;61944;52.538;6.108;2023-07-31T03:10:46;5.53;;;1.95;;
73650;SDS011;61944;52.538;6.108;2023-07-31T03:13:12;3.40;;;2.20;;
73650;SDS011;61944;52.538;6.108;2023-07-31T03:15:37;5.20;;;1.77;;
73650;SDS011;61944;52.538;6.108;2023-07-31T03:18:02;3.88;;;2.25;;
73650;SDS011;61944;52.538;6.108;2023-07-31T03:20:28;6.35;;;2.05;;
73650;SDS011;61944;52.538;6.108;2023-07-31T03:22:53;4.95;;;2.50;;
73650;SDS011;61944;52.538;6.108;2023-07-31T03:25:19;7.35;;;2.53;;
73650;SDS011;61944;52.538;6.108;2023-07-31T03:27:44;7.38;;;3.25;;
73650;SDS011;61944;52.538;6.108;2023-07-31T03:30:10;5.80;;;2.45;;
73650;SDS011;61944;52.538;6.108;2023-07-31T03:32:36;8.63;;;3.25;;
73650;SDS011;61944;52.538;6.108;2023-07-31T03:35:02;10.30;;;3.88;;
73650;SDS011;61944;52.538;6.108;2023-07-31T03:37:28;13.32;;;4.13;;
73650;SDS011;61944;52.538;6.108;2023-07-31T03:39:54;13.23;;;3.70;;
73650;SDS011;61944;52.538;6.108;2023-07-31T03:42:19;12.10;;;3.85;;
73650;SDS011;61944;52.538;6.108;2023-07-31T03:44:45;8.88;;;4.07;;
73650;SDS011;61944;52.538;6.108;2023-07-31T03:47:10;11.10;;;4.15;;
73650;SDS011;61944;52.538;6.108;2023-07-31T03:49:36;12.07;;;5.03;;
73650;SDS011;61944;52.538;6.108;2023-07-31T03:52:01;10.73;;;4.78;;
73650;SDS011;61944;52.538;6.108;2023-07-31T03:54:26;12.23;;;5.05;;
73650;SDS011;61944;52.538;6.108;2023-07-31T03:56:52;11.77;;;4.70;;
73650;SDS011;61944;52.538;6.108;2023-07-31T03:59:17;16.77;;;5.40;;
73650;SDS011;61944;52.538;6.108;2023-07-31T04:01:43;12.40;;;5.28;;
73650;SDS011;61944;52.538;6.108;2023-07-31T04:04:08;14.60;;;5.28;;
73650;SDS011;61944;52.538;6.108;2023-07-31T04:06:33;11.93;;;5.40;;
73650;SDS011;61944;52.538;6.108;2023-07-31T04:08:59;18.02;;;5.47;;
73650;SDS011;61944;52.538;6.108;2023-07-31T04:11:24;19.27;;;5.82;;
73650;SDS011;61944;52.538;6.108;2023-07-31T04:13:50;18.63;;;5.15;;
73650;SDS011;61944;52.538;6.108;2023-07-31T04:16:15;14.30;;;4.50;;
73650;SDS011;61944;52.538;6.108;2023-07-31T04:18:40;15.98;;;5.22;;
73650;SDS011;61944;52.538;6.108;2023-07-31T04:21:06;19.00;;;5.18;;
73650;SDS011;61944;52.538;6.108;2023-07-31T04:23:31;23.83;;;6.63;;
73650;SDS011;61944;52.538;6.108;2023-07-31T04:25:57;15.55;;;4.68;;
73650;SDS011;61944;52.538;6.108;2023-07-31T04:28:22;14.82;;;5.28;;
73650;SDS011;61944;52.538;6.108;2023-07-31T04:30:48;18.92;;;5.45;;
73650;SDS011;61944;52.538;6.108;2023-07-31T04:33:13;17.77;;;5.30;;
73650;SDS011;61944;52.538;6.108;2023-07-31T04:35:38;26.42;;;5.45;;
73650;SDS011;61944;52.538;6.108;2023-07-31T04:38:04;13.98;;;5.25;;
73650;SDS011;61944;52.538;6.108;2023-07-31T04:40:29;15.57;;;5.20;;
73650;SDS011;61944;52.538;6.108;2023-07-31T04:42:55;24.98;;;7.82;;
73650;SDS011;61944;52.538;6.108;2023-07-31T04:45:20;19.83;;;6.72;;
73650;SDS011;61944;52.538;6.108;2023-07-31T04:47:46;19.45;;;6.28;;
73650;SDS011;61944;52.538;6.108;2023-07-31T04:50:11;13.18;;;5.28;;
73650;SDS011;61944;52.538;6.108;2023-07-31T04:52:36;21.13;;;7.55;;
73650;SDS011;61944;52.538;6.108;2023-07-31T04:55:02;13.35;;;5.03;;
73650;SDS011;61944;52.538;6.108;2023-07-31T04:57:28;14.98;;;5.40;;
73650;SDS011;61944;52.538;6.108;2023-07-31T04:59:53;18.45;;;5.88;;
73650;SDS011;61944;52.538;6.108;2023-07-31T05:02:18;21.00;;;6.22;;
73650;SDS011;61944;52.538;6.108;2023-07-31T05:04:44;18.08;;;5.78;;
73650;SDS011;61944;52.538;6.108;2023-07-31T05:07:09;18.40;;;5.53;;
73650;SDS011;61944;52.538;6.108;2023-07-31T05:09:35;23.83;;;5.50;;
73650;SDS011;61944;52.538;6.108;2023-07-31T05:12:00;19.40;;;6.20;;
73650;SDS011;61944;52.538;6.108;2023-07-31T05:14:26;21.17;;;5.47;;
73650;SDS011;61944;52.538;6.108;2023-07-31T05:16:51;16.30;;;4.90;;
73650;SDS011;61944;52.538;6.108;2023-07-31T05:19:17;18.02;;;6.63;;
73650;SDS011;61944;52.538;6.108;2023-07-31T05:21:43;16.85;;;5.28;;
73650;SDS011;61944;52.538;6.108;2023-07-31T05:24:09;20.80;;;6.43;;
73650;SDS011;61944;52.538;6.108;2023-07-31T05:26:35;18.02;;;6.40;;
73650;SDS011;61944;52.538;6.108;2023-07-31T05:29:01;14.43;;;6.45;;
73650;SDS011;61944;52.538;6.108;2023-07-31T05:31:27;18.67;;;5.05;;
73650;SDS011;61944;52.538;6.108;2023-07-31T05:33:52;11.35;;;4.85;;
73650;SDS011;61944;52.538;6.108;2023-07-31T05:36:19;16.33;;;6.28;;
73650;SDS011;61944;52.538;6.108;2023-07-31T05:38:44;18.02;;;7.05;;
73650;SDS011;61944;52.538;6.108;2023-07-31T05:41:11;22.65;;;6.68;;
73650;SDS011;61944;52.538;6.108;2023-07-31T05:43:40;24.77;;;6.07;;
73650;SDS011;61944;52.538;6.108;2023-07-31T05:46:06;23.88;;;6.68;;
73650;SDS011;61944;52.538;6.108;2023-07-31T05:48:32;16.77;;;6.25;;
73650;SDS011;61944;52.538;6.108;2023-07-31T05:51:00;15.15;;;6.07;;
73650;SDS011;61944;52.538;6.108;2023-07-31T05:53:25;17.15;;;6.60;;
73650;SDS011;61944;52.538;6.108;2023-07-31T05:55:52;17.90;;;5.63;;
73650;SDS011;61944;52.538;6.108;2023-07-31T05:58:18;18.08;;;6.20;;
73650;SDS011;61944;52.538;6.108;2023-07-31T06:00:43;13.85;;;5.10;;
73650;SDS011;61944;52.538;6.108;2023-07-31T06:03:08;15.35;;;6.25;;
73650;SDS011;61944;52.538;6.108;2023-07-31T06:05:34;13.65;;;5.47;;
73650;SDS011;61944;52.538;6.108;2023-07-31T06:07:59;12.95;;;5.47;;
73650;SDS011;61944;52.538;6.108;2023-07-31T06:10:25;11.80;;;5.82;;
73650;SDS011;61944;52.538;6.108;2023-07-31T06:12:51;10.48;;;5.07;;
73650;SDS011;61944;52.538;6.108;2023-07-31T06:15:17;11.73;;;5.22;;
73650;SDS011;61944;52.538;6.108;2023-07-31T06:17:46;17.65;;;5.93;;
73650;SDS011;61944;52.538;6.108;2023-07-31T06:20:12;11.80;;;4.30;;
73650;SDS011;61944;52.538;6.108;2023-07-31T06:22:37;9.43;;;3.63;;
73650;SDS011;61944;52.538;6.108;2023-07-31T06:25:03;10.05;;;3.92;;
73650;SDS011;61944;52.538;6.108;2023-07-31T06:27:28;8.77;;;3.47;;
73650;SDS011;61944;52.538;6.108;2023-07-31T06:29:54;11.32;;;4.65;;
73650;SDS011;61944;52.538;6.108;2023-07-31T06:32:19;12.35;;;4.75;;
73650;SDS011;61944;52.538;6.108;2023-07-31T06:34:45;9.90;;;4.05;;
73650;SDS011;61944;52.538;6.108;2023-07-31T06:37:10;10.45;;;4.30;;
73650;SDS011;61944;52.538;6.108;2023-07-31T06:39:35;8.68;;;3.17;;
73650;SDS011;61944;52.538;6.108;2023-07-31T06:42:02;7.65;;;2.97;;
73650;SDS011;61944;52.538;6.108;2023-07-31T06:44:31;7.60;;;3.33;;
73650;SDS011;61944;52.538;6.108;2023-07-31T06:46:56;7.15;;;3.05;;
73650;SDS011;61944;52.538;6.108;2023-07-31T06:49:21;9.23;;;3.53;;
73650;SDS011;61944;52.538;6.108;2023-07-31T06:51:47;7.15;;;3.13;;
73650;SDS011;61944;52.538;6.108;2023-07-31T06:54:15;8.63;;;3.03;;
73650;SDS011;61944;52.538;6.108;2023-07-31T06:56:40;5.25;;;2.75;;
73650;SDS011;61944;52.538;6.108;2023-07-31T06:59:06;4.75;;;2.40;;
73650;SDS011;61944;52.538;6.108;2023-07-31T07:01:32;5.85;;;3.13;;
73650;SDS011;61944;52.538;6.108;2023-07-31T07:03:58;4.90;;;2.38;;
73650;SDS011;61944;52.538;6.108;2023-07-31T07:06:24;3.90;;;1.88;;
73650;SDS011;61944;52.538;6.108;2023-07-31T07:08:50;5.88;;;2.65;;
73650;SDS011;61944;52.538;6.108;2023-07-31T07:11:15;8.60;;;2.13;;
73650;SDS011;61944;52.538;6.108;2023-07-31T07:13:41;3.83;;;1.73;;
73650;SDS011;61944;52.538;6.108;2023-07-31T07:16:06;6.60;;;2.78;;
73650;SDS011;61944;52.538;6.108;2023-07-31T07:18:31;3.90;;;2.15;;
73650;SDS011;61944;52.538;6.108;2023-07-31T07:20:57;4.88;;;2.55;;
73650;SDS011;61944;52.538;6.108;2023-07-31T07:23:23;3.45;;;1.75;;
73650;SDS011;61944;52.538;6.108;2023-07-31T07:25:48;4.50;;;2.33;;
73650;SDS011;61944;52.538;6.108;2023-07-31T07:28:14;5.07;;;2.45;;
73650;SDS011;61944;52.538;6.108;2023-07-31T07:30:40;7.40;;;2.15;;
73650;SDS011;61944;52.538;6.108;2023-07-31T07:33:06;5.18;;;2.28;;
73650;SDS011;61944;52.538;6.108;2023-07-31T07:35:34;4.03;;;2.13;;
73650;SDS011;61944;52.538;6.108;2023-07-31T07:38:04;3.67;;;2.60;;
73650;SDS011;61944;52.538;6.108;2023-07-31T07:40:29;4.63;;;2.20;;
73650;SDS011;61944;52.538;6.108;2023-07-31T07:42:56;5.85;;;2.28;;
73650;SDS011;61944;52.538;6.108;2023-07-31T07:45:21;3.40;;;1.88;;
73650;SDS011;61944;52.538;6.108;2023-07-31T07:47:46;4.18;;;2.10;;
73650;SDS011;61944;52.538;6.108;2023-07-31T07:50:12;4.32;;;1.92;;
73650;SDS011;61944;52.538;6.108;2023-07-31T07:52:37;3.35;;;1.98;;
73650;SDS011;61944;52.538;6.108;2023-07-31T07:55:03;6.78;;;2.30;;
73650;SDS011;61944;52.538;6.108;2023-07-31T07:57:29;6.22;;;2.50;;
73650;SDS011;61944;52.538;6.108;2023-07-31T07:59:54;3.45;;;2.22;;
73650;SDS011;61944;52.538;6.108;2023-07-31T08:02:20;2.80;;;2.13;;
73650;SDS011;61944;52.538;6.108;2023-07-31T08:04:45;3.92;;;1.92;;
73650;SDS011;61944;52.538;6.108;2023-07-31T08:07:11;4.18;;;2.92;;
73650;SDS011;61944;52.538;6.108;2023-07-31T08:09:37;4.05;;;2.22;;
73650;SDS011;61944;52.538;6.108;2023-07-31T08:12:03;3.28;;;1.83;;
73650;SDS011;61944;52.538;6.108;2023-07-31T08:14:29;3.00;;;1.73;;
73650;SDS011;61944;52.538;6.108;2023-07-31T08:16:54;4.10;;;1.92;;
73650;SDS011;61944;52.538;6.108;2023-07-31T08:19:21;3.03;;;1.80;;
73650;SDS011;61944;52.538;6.108;2023-07-31T08:21:46;2.50;;;1.48;;
73650;SDS011;61944;52.538;6.108;2023-07-31T08:24:12;2.83;;;1.70;;
73650;SDS011;61944;52.538;6.108;2023-07-31T08:26:37;3.22;;;1.70;;
73650;SDS011;61944;52.538;6.108;2023-07-31T08:29:02;5.35;;;2.40;;
73650;SDS011;61944;52.538;6.108;2023-07-31T08:31:28;2.22;;;1.33;;
73650;SDS011;61944;52.538;6.108;2023-07-31T08:33:54;2.50;;;1.52;;
73650;SDS011;61944;52.538;6.108;2023-07-31T08:36:22;5.00;;;1.73;;
73650;SDS011;61944;52.538;6.108;2023-07-31T08:38:48;2.45;;;1.23;;
73650;SDS011;61944;52.538;6.108;2023-07-31T08:41:14;3.80;;;1.52;;
73650;SDS011;61944;52.538;6.108;2023-07-31T08:43:42;3.38;;;1.58;;
73650;SDS011;61944;52.538;6.108;2023-07-31T08:46:10;2.55;;;1.90;;
73650;SDS011;61944;52.538;6.108;2023-07-31T08:48:35;1.85;;;1.40;;
73650;SDS011;61944;52.538;6.108;2023-07-31T08:51:03;3.33;;;1.40;;
73650;SDS011;61944;52.538;6.108;2023-07-31T08:53:29;2.75;;;1.63;;
73650;SDS011;61944;52.538;6.108;2023-07-31T08:55:54;1.60;;;1.33;;
73650;SDS011;61944;52.538;6.108;2023-07-31T08:58:23;4.78;;;1.83;;
73650;SDS011;61944;52.538;6.108;2023-07-31T09:00:49;2.80;;;1.45;;
73650;SDS011;61944;52.538;6.108;2023-07-31T09:03:17;1.50;;;1.20;;
73650;SDS011;61944;52.538;6.108;2023-07-31T09:05:44;2.28;;;1.30;;
73650;SDS011;61944;52.538;6.108;2023-07-31T09:08:15;2.83;;;1.50;;
73650;SDS011;61944;52.538;6.108;2023-07-31T09:10:45;1.50;;;1.30;;
73650;SDS011;61944;52.538;6.108;2023-07-31T09:13:12;3.90;;;1.50;;
73650;SDS011;61944;52.538;6.108;2023-07-31T09:15:38;3.55;;;1.40;;
73650;SDS011;61944;52.538;6.108;2023-07-31T09:18:06;4.57;;;1.55;;
73650;SDS011;61944;52.538;6.108;2023-07-31T09:20:33;2.60;;;1.63;;
73650;SDS011;61944;52.538;6.108;2023-07-31T09:23:32;3.53;;;1.40;;
73650;SDS011;61944;52.538;6.108;2023-07-31T09:25:50;2.75;;;1.42;;
73650;SDS011;61944;52.538;6.108;2023-07-31T09:28:16;1.83;;;1.50;;
73650;SDS011;61944;52.538;6.108;2023-07-31T09:30:51;2.47;;;1.60;;
73650;SDS011;61944;52.538;6.108;2023-07-31T09:33:18;2.47;;;1.42;;
73650;SDS011;61944;52.538;6.108;2023-07-31T09:35:44;2.08;;;1.30;;
73650;SDS011;61944;52.538;6.108;2023-07-31T09:38:10;2.25;;;1.35;;
73650;SDS011;61944;52.538;6.108;2023-07-31T09:40:44;1.83;;;1.33;;
73650;SDS011;61944;52.538;6.108;2023-07-31T09:43:10;3.50;;;2.03;;
73650;SDS011;61944;52.538;6.108;2023-07-31T09:45:38;3.13;;;1.80;;
73650;SDS011;61944;52.538;6.108;2023-07-31T09:48:12;2.97;;;1.50;;
73650;SDS011;61944;52.538;6.108;2023-07-31T09:50:43;2.00;;;1.33;;
73650;SDS011;61944;52.538;6.108;2023-07-31T09:53:10;2.45;;;1.50;;
73650;SDS011;61944;52.538;6.108;2023-07-31T09:55:36;2.33;;;1.30;;
73650;SDS011;61944;52.538;6.108;2023-07-31T09:58:09;1.80;;;1.40;;
73650;SDS011;61944;52.538;6.108;2023-07-31T10:00:37;1.60;;;1.30;;
73650;SDS011;61944;52.538;6.108;2023-07-31T10:03:07;2.03;;;1.65;;
73650;SDS011;61944;52.538;6.108;2023-07-31T10:05:34;2.47;;;1.60;;
73650;SDS011;61944;52.538;6.108;2023-07-31T10:08:04;1.35;;;1.25;;
73650;SDS011;61944;52.538;6.108;2023-07-31T10:10:32;1.83;;;1.00;;
73650;SDS011;61944;52.538;6.108;2023-07-31T10:13:00;3.42;;;1.20;;
73650;SDS011;61944;52.538;6.108;2023-07-31T10:15:31;2.50;;;1.52;;
73650;SDS011;61944;52.538;6.108;2023-07-31T10:17:57;2.15;;;1.60;;
73650;SDS011;61944;52.538;6.108;2023-07-31T10:20:24;2.17;;;1.48;;
73650;SDS011;61944;52.538;6.108;2023-07-31T10:22:51;1.33;;;1.23;;
73650;SDS011;61944;52.538;6.108;2023-07-31T10:25:16;3.30;;;1.42;;
73650;SDS011;61944;52.538;6.108;2023-07-31T10:27:44;1.38;;;0.95;;
73650;SDS011;61944;52.538;6.108;2023-07-31T10:30:12;3.20;;;1.25;;
73650;SDS011;61944;52.538;6.108;2023-07-31T10:32:41;1.38;;;1.20;;
73650;SDS011;61944;52.538;6.108;2023-07-31T10:35:09;2.28;;;1.00;;
73650;SDS011;61944;52.538;6.108;2023-07-31T10:40:23;1.50;;;0.90;;
73650;SDS011;61944;52.538;6.108;2023-07-31T10:42:56;1.40;;;1.30;;
73650;SDS011;61944;52.538;6.108;2023-07-31T10:45:24;1.30;;;1.00;;
73650;SDS011;61944;52.538;6.108;2023-07-31T10:48:02;1.65;;;1.30;;
73650;SDS011;61944;52.538;6.108;2023-07-31T10:50:50;1.48;;;1.35;;
73650;SDS011;61944;52.538;6.108;2023-07-31T10:53:30;2.60;;;1.42;;
73650;SDS011;61944;52.538;6.108;2023-07-31T10:58:29;3.53;;;1.40;;
73650;SDS011;61944;52.538;6.108;2023-07-31T11:00:58;2.03;;;1.35;;
73650;SDS011;61944;52.538;6.108;2023-07-31T11:03:25;1.67;;;1.35;;
73650;SDS011;61944;52.538;6.108;2023-07-31T11:08:27;2.80;;;1.20;;
73650;SDS011;61944;52.538;6.108;2023-07-31T11:13:26;2.00;;;1.05;;
73650;SDS011;61944;52.538;6.108;2023-07-31T11:15:51;1.10;;;1.00;;
73650;SDS011;61944;52.538;6.108;2023-07-31T11:18:16;2.58;;;1.35;;
73650;SDS011;61944;52.538;6.108;2023-07-31T11:20:43;2.05;;;1.63;;
73650;SDS011;61944;52.538;6.108;2023-07-31T11:23:09;1.42;;;1.33;;
73650;SDS011;61944;52.538;6.108;2023-07-31T11:25:36;2.05;;;1.60;;
73650;SDS011;61944;52.538;6.108;2023-07-31T11:28:10;3.20;;;1.80;;
73650;SDS011;61944;52.538;6.108;2023-07-31T11:30:40;2.47;;;1.77;;
73650;SDS011;61944;52.538;6.108;2023-07-31T11:33:06;2.63;;;1.50;;
73650;SDS011;61944;52.538;6.108;2023-07-31T11:35:33;2.80;;;1.67;;
73650;SDS011;61944;52.538;6.108;2023-07-31T11:38:01;2.67;;;2.03;;
73650;SDS011;61944;52.538;6.108;2023-07-31T11:40:27;3.55;;;2.38;;
73650;SDS011;61944;52.538;6.108;2023-07-31T11:42:57;2.47;;;2.20;;
73650;SDS011;61944;52.538;6.108;2023-07-31T11:45:29;3.05;;;2.30;;
73650;SDS011;61944;52.538;6.108;2023-07-31T11:47:55;4.68;;;2.33;;
73650;SDS011;61944;52.538;6.108;2023-07-31T11:50:21;2.95;;;2.30;;
73650;SDS011;61944;52.538;6.108;2023-07-31T11:52:50;5.22;;;2.40;;
73650;SDS011;61944;52.538;6.108;2023-07-31T11:55:20;2.90;;;2.40;;
73650;SDS011;61944;52.538;6.108;2023-07-31T11:57:46;3.80;;;2.50;;
73650;SDS011;61944;52.538;6.108;2023-07-31T12:00:12;2.00;;;1.80;;
73650;SDS011;61944;52.538;6.108;2023-07-31T12:02:39;2.47;;;1.80;;
73650;SDS011;61944;52.538;6.108;2023-07-31T12:05:06;3.38;;;1.85;;
73650;SDS011;61944;52.538;6.108;2023-07-31T12:07:45;3.45;;;1.85;;
73650;SDS011;61944;52.538;6.108;2023-07-31T12:10:25;5.22;;;2.03;;
73650;SDS011;61944;52.538;6.108;2023-07-31T12:12:55;2.53;;;1.90;;
73650;SDS011;61944;52.538;6.108;2023-07-31T12:15:29;3.30;;;2.45;;
73650;SDS011;61944;52.538;6.108;2023-07-31T12:17:56;4.07;;;2.55;;
73650;SDS011;61944;52.538;6.108;2023-07-31T12:20:22;3.13;;;2.53;;
73650;SDS011;61944;52.538;6.108;2023-07-31T12:22:48;3.13;;;2.15;;
73650;SDS011;61944;52.538;6.108;2023-07-31T12:25:16;3.40;;;2.55;;
73650;SDS011;61944;52.538;6.108;2023-07-31T12:27:44;3.38;;;2.25;;
73650;SDS011;61944;52.538;6.108;2023-07-31T12:32:54;4.68;;;2.97;;
73650;SDS011;61944;52.538;6.108;2023-07-31T12:35:20;3.78;;;2.50;;
73650;SDS011;61944;52.538;6.108;2023-07-31T12:37:45;4.47;;;3.20;;
73650;SDS011;61944;52.538;6.108;2023-07-31T12:40:11;5.10;;;2.72;;
73650;SDS011;61944;52.538;6.108;2023-07-31T12:42:37;5.18;;;2.80;;
73650;SDS011;61944;52.538;6.108;2023-07-31T12:45:03;9.95;;;3.10;;
73650;SDS011;61944;52.538;6.108;2023-07-31T12:47:28;4.63;;;3.08;;
73650;SDS011;61944;52.538;6.108;2023-07-31T12:49:54;4.18;;;2.90;;
73650;SDS011;61944;52.538;6.108;2023-07-31T12:52:20;4.22;;;2.50;;
73650;SDS011;61944;52.538;6.108;2023-07-31T12:54:45;4.03;;;2.88;;
73650;SDS011;61944;52.538;6.108;2023-07-31T12:57:11;4.47;;;2.88;;
73650;SDS011;61944;52.538;6.108;2023-07-31T12:59:36;3.38;;;2.38;;
73650;SDS011;61944;52.538;6.108;2023-07-31T13:02:02;3.42;;;3.03;;
73650;SDS011;61944;52.538;6.108;2023-07-31T13:04:28;3.00;;;2.55;;
73650;SDS011;61944;52.538;6.108;2023-07-31T13:06:53;4.72;;;3.17;;
73650;SDS011;61944;52.538;6.108;2023-07-31T13:09:21;4.40;;;2.58;;
73650;SDS011;61944;52.538;6.108;2023-07-31T13:11:46;4.80;;;2.67;;
73650;SDS011;61944;52.538;6.108;2023-07-31T13:14:12;4.93;;;3.22;;
73650;SDS011;61944;52.538;6.108;2023-07-31T13:16:37;3.38;;;2.13;;
73650;SDS011;61944;52.538;6.108;2023-07-31T13:19:03;6.72;;;2.63;;
73650;SDS011;61944;52.538;6.108;2023-07-31T13:21:28;4.95;;;2.83;;
73650;SDS011;61944;52.538;6.108;2023-07-31T13:23:58;4.72;;;3.00;;
73650;SDS011;61944;52.538;6.108;2023-07-31T13:26:25;5.63;;;2.88;;
73650;SDS011;61944;52.538;6.108;2023-07-31T13:28:54;5.00;;;3.20;;
73650;SDS011;61944;52.538;6.108;2023-07-31T13:31:19;6.68;;;2.58;;
73650;SDS011;61944;52.538;6.108;2023-07-31T13:33:44;10.48;;;3.92;;
73650;SDS011;61944;52.538;6.108;2023-07-31T13:36:10;3.90;;;2.20;;
73650;SDS011;61944;52.538;6.108;2023-07-31T13:38:36;8.13;;;2.88;;
73650;SDS011;61944;52.538;6.108;2023-07-31T13:41:02;6.63;;;2.83;;
73650;SDS011;61944;52.538;6.108;2023-07-31T13:43:27;4.07;;;2.15;;
73650;SDS011;61944;52.538;6.108;2023-07-31T13:45:53;4.78;;;2.28;;
73650;SDS011;61944;52.538;6.108;2023-07-31T13:48:19;4.20;;;2.67;;
73650;SDS011;61944;52.538;6.108;2023-07-31T13:50:48;5.78;;;2.65;;
73650;SDS011;61944;52.538;6.108;2023-07-31T13:53:13;5.75;;;2.55;;
73650;SDS011;61944;52.538;6.108;2023-07-31T13:55:39;5.35;;;3.47;;
73650;SDS011;61944;52.538;6.108;2023-07-31T13:58:04;4.10;;;2.90;;
73650;SDS011;61944;52.538;6.108;2023-07-31T14:00:29;4.13;;;2.45;;
73650;SDS011;61944;52.538;6.108;2023-07-31T14:02:55;3.20;;;2.47;;
73650;SDS011;61944;52.538;6.108;2023-07-31T14:05:20;3.42;;;2.47;;
73650;SDS011;61944;52.538;6.108;2023-07-31T14:07:46;4.28;;;2.75;;
73650;SDS011;61944;52.538;6.108;2023-07-31T14:10:11;5.53;;;2.92;;
73650;SDS011;61944;52.538;6.108;2023-07-31T14:12:36;5.05;;;2.72;;
73650;SDS011;61944;52.538;6.108;2023-07-31T14:15:02;4.80;;;2.90;;
73650;SDS011;61944;52.538;6.108;2023-07-31T14:17:28;3.72;;;2.67;;
73650;SDS011;61944;52.538;6.108;2023-07-31T14:19:53;5.93;;;3.40;;
73650;SDS011;61944;52.538;6.108;2023-07-31T14:22:31;3.83;;;2.47;;
73650;SDS011;61944;52.538;6.108;2023-07-31T14:24:58;5.25;;;3.08;;
73650;SDS011;61944;52.538;6.108;2023-07-31T14:27:25;3.83;;;2.60;;
73650;SDS011;61944;52.538;6.108;2023-07-31T14:29:50;5.85;;;2.88;;
73650;SDS011;61944;52.538;6.108;2023-07-31T14:32:16;3.92;;;2.40;;
73650;SDS011;61944;52.538;6.108;2023-07-31T14:34:41;4.38;;;3.33;;
73650;SDS011;61944;52.538;6.108;2023-07-31T14:37:07;3.75;;;2.92;;
73650;SDS011;61944;52.538;6.108;2023-07-31T14:39:32;5.72;;;3.17;;
73650;SDS011;61944;52.538;6.108;2023-07-31T14:41:57;4.93;;;2.95;;
73650;SDS011;61944;52.538;6.108;2023-07-31T14:44:23;6.13;;;3.33;;
73650;SDS011;61944;52.538;6.108;2023-07-31T14:46:48;6.93;;;2.88;;
73650;SDS011;61944;52.538;6.108;2023-07-31T14:49:14;5.85;;;2.92;;
73650;SDS011;61944;52.538;6.108;2023-07-31T14:51:39;4.68;;;2.67;;
73650;SDS011;61944;52.538;6.108;2023-07-31T14:54:05;6.70;;;3.40;;
73650;SDS011;61944;52.538;6.108;2023-07-31T14:56:30;5.97;;;3.85;;
73650;SDS011;61944;52.538;6.108;2023-07-31T14:58:56;4.13;;;3.40;;
73650;SDS011;61944;52.538;6.108;2023-07-31T15:01:22;5.15;;;4.13;;